createdAt,value
2022-07-26T00:01:22.521Z,2.97
2022-07-26T00:03:51.827Z,3.35
2022-07-26T00:06:20.434Z,3.63
2022-07-26T00:08:50.130Z,3.40
2022-07-26T00:11:18.466Z,3.33
2022-07-26T00:13:47.226Z,3.47
2022-07-26T00:16:15.869Z,3.47
2022-07-26T00:18:44.356Z,3.55
2022-07-26T00:21:16.597Z,3.50
2022-07-26T00:23:44.965Z,3.58
2022-07-26T00:26:14.641Z,3.55
2022-07-26T00:28:43.358Z,3.10
2022-07-26T00:31:13.041Z,2.95
2022-07-26T00:33:41.686Z,2.88
2022-07-26T00:36:10.393Z,2.88
2022-07-26T00:38:38.660Z,2.58
2022-07-26T00:41:07.164Z,3.08
2022-07-26T00:43:37.160Z,3.08
2022-07-26T00:46:05.735Z,3.00
2022-07-26T00:48:34.098Z,2.92
2022-07-26T00:51:02.423Z,3.08
2022-07-26T00:53:30.898Z,2.88
2022-07-26T00:55:59.361Z,2.63
2022-07-26T00:58:27.662Z,2.95
2022-07-26T01:00:57.399Z,2.78
2022-07-26T01:03:30.380Z,2.80
2022-07-26T01:06:05.060Z,2.70
2022-07-26T01:08:33.509Z,2.40
2022-07-26T01:11:01.813Z,2.60
2022-07-26T01:13:34.904Z,2.35
2022-07-26T01:18:33.254Z,3.05
2022-07-26T01:21:13.076Z,3.03
2022-07-26T01:23:43.665Z,2.80
2022-07-26T01:26:14.800Z,2.63
2022-07-26T01:28:44.881Z,2.67
2022-07-26T01:31:13.300Z,3.15
2022-07-26T01:33:41.660Z,2.97
2022-07-26T01:36:10.429Z,3.40
2022-07-26T01:38:38.714Z,3.08
2022-07-26T01:41:08.809Z,3.75
2022-07-26T01:43:37.352Z,3.03
2022-07-26T01:46:06.350Z,3.67
2022-07-26T01:48:34.806Z,3.65
2022-07-26T01:51:03.442Z,3.72
2022-07-26T01:53:31.712Z,3.30
2022-07-26T01:56:00.013Z,2.95
2022-07-26T01:58:29.661Z,3.25
2022-07-26T02:00:57.958Z,3.05
2022-07-26T02:03:26.307Z,3.45
2022-07-26T02:05:54.669Z,3.38
2022-07-26T02:08:22.988Z,3.33
2022-07-26T02:11:04.147Z,3.42
2022-07-26T02:13:34.884Z,3.10
2022-07-26T02:16:03.497Z,3.80
2022-07-26T02:18:32.257Z,3.67
2022-07-26T02:21:00.873Z,3.15
2022-07-26T02:23:29.600Z,3.70
2022-07-26T02:25:58.150Z,3.20
2022-07-26T02:28:26.867Z,3.13
2022-07-26T02:30:56.570Z,3.63
2022-07-26T02:33:25.336Z,3.50
2022-07-26T02:35:56.535Z,3.58
2022-07-26T02:38:25.273Z,3.63
2022-07-26T02:40:53.837Z,3.75
2022-07-26T02:43:22.143Z,3.83
2022-07-26T02:46:01.849Z,3.50
2022-07-26T02:48:32.397Z,3.63
2022-07-26T02:51:00.816Z,4.03
2022-07-26T02:53:29.132Z,3.50
2022-07-26T02:55:57.427Z,3.72
2022-07-26T02:58:26.969Z,3.75
2022-07-26T03:00:55.374Z,3.28
2022-07-26T03:03:23.683Z,3.85
2022-07-26T03:05:53.394Z,3.78
2022-07-26T03:08:22.673Z,3.67
2022-07-26T03:10:51.035Z,3.70
2022-07-26T03:13:19.396Z,3.85
2022-07-26T03:15:47.816Z,3.80
2022-07-26T03:18:16.190Z,4.32
2022-07-26T03:20:44.694Z,3.58
2022-07-26T03:23:14.399Z,3.78
2022-07-26T03:25:42.802Z,3.75
2022-07-26T03:28:14.707Z,3.90
2022-07-26T03:30:45.877Z,3.35
2022-07-26T03:33:14.252Z,3.25
2022-07-26T03:35:42.568Z,3.85
2022-07-26T03:38:14.385Z,4.30
2022-07-26T03:40:42.706Z,4.00
2022-07-26T03:43:11.038Z,3.65
2022-07-26T03:45:39.367Z,3.75
2022-07-26T03:48:08.143Z,3.90
2022-07-26T03:50:36.499Z,3.63
2022-07-26T03:53:06.841Z,3.92
2022-07-26T03:55:54.782Z,3.95
2022-07-26T03:58:23.143Z,4.03
2022-07-26T04:00:51.536Z,3.72
2022-07-26T04:03:20.778Z,4.47
2022-07-26T04:05:49.314Z,4.65
2022-07-26T04:08:17.729Z,4.20
2022-07-26T04:10:51.120Z,4.30
2022-07-26T04:13:19.517Z,3.75
2022-07-26T04:15:48.217Z,4.45
2022-07-26T04:18:16.633Z,3.92
2022-07-26T04:20:45.393Z,3.78
2022-07-26T04:23:13.838Z,4.05
2022-07-26T04:25:42.501Z,4.05
2022-07-26T04:28:12.317Z,4.03
2022-07-26T04:30:40.951Z,4.82
2022-07-26T04:33:09.549Z,4.70
2022-07-26T04:35:37.875Z,4.75
2022-07-26T04:38:06.195Z,4.60
2022-07-26T04:40:34.547Z,4.63
2022-07-26T04:43:10.241Z,4.38
2022-07-26T04:45:45.576Z,4.60
2022-07-26T04:48:13.997Z,4.18
2022-07-26T04:50:42.666Z,4.20
2022-07-26T04:53:11.975Z,4.57
2022-07-26T04:55:40.321Z,4.72
2022-07-26T04:58:08.940Z,4.57
2022-07-26T05:01:02.856Z,5.13
2022-07-26T05:03:27.551Z,5.53
2022-07-26T05:05:55.860Z,5.15
2022-07-26T05:08:24.175Z,5.50
2022-07-26T05:10:55.531Z,4.75
2022-07-26T05:13:29.882Z,5.15
2022-07-26T05:15:59.442Z,5.03
2022-07-26T05:18:31.905Z,5.78
2022-07-26T05:21:13.954Z,5.50
2022-07-26T05:23:42.366Z,5.45
2022-07-26T05:26:10.725Z,5.47
2022-07-26T05:28:39.941Z,5.20
2022-07-26T05:31:08.721Z,5.78
2022-07-26T05:33:38.427Z,5.80
2022-07-26T05:36:06.990Z,5.20
2022-07-26T05:38:35.311Z,5.60
2022-07-26T05:41:03.655Z,5.05
2022-07-26T05:43:40.776Z,5.05
2022-07-26T05:46:10.197Z,4.82
2022-07-26T05:48:40.237Z,4.35
2022-07-26T05:51:08.662Z,4.53
2022-07-26T05:53:36.996Z,4.88
2022-07-26T05:56:05.961Z,4.78
2022-07-26T05:58:34.258Z,4.63
2022-07-26T06:01:02.614Z,4.50
2022-07-26T06:03:32.091Z,4.38
2022-07-26T06:06:01.776Z,4.57
2022-07-26T06:08:30.137Z,4.35
2022-07-26T06:10:58.596Z,4.28
2022-07-26T06:13:27.140Z,4.38
2022-07-26T06:15:55.517Z,4.50
2022-07-26T06:18:23.846Z,4.28
2022-07-26T06:20:52.428Z,5.07
2022-07-26T06:23:34.573Z,4.80
2022-07-26T06:26:03.822Z,4.30
2022-07-26T06:28:32.149Z,4.45
2022-07-26T06:31:00.472Z,3.80
2022-07-26T06:33:28.793Z,3.72
2022-07-26T06:35:57.104Z,4.47
2022-07-26T06:38:26.901Z,4.50
2022-07-26T06:40:59.446Z,3.90
2022-07-26T06:43:27.741Z,4.00
2022-07-26T06:45:56.073Z,3.83
2022-07-26T06:48:24.403Z,3.97
2022-07-26T06:50:52.853Z,4.28
2022-07-26T06:53:21.136Z,3.95
2022-07-26T06:55:50.861Z,3.60
2022-07-26T06:58:19.154Z,3.42
2022-07-26T07:00:47.543Z,3.40
2022-07-26T07:03:15.878Z,3.42
2022-07-26T07:05:49.443Z,3.85
2022-07-26T07:08:18.761Z,3.58
2022-07-26T07:10:48.558Z,3.60
2022-07-26T07:13:21.056Z,3.45
2022-07-26T07:15:49.389Z,3.30
2022-07-26T07:18:17.711Z,3.60
2022-07-26T07:20:46.078Z,3.22
2022-07-26T07:23:14.377Z,3.10
2022-07-26T07:25:44.771Z,3.15
2022-07-26T07:28:13.362Z,2.97
2022-07-26T07:30:43.183Z,3.55
2022-07-26T07:33:22.926Z,3.10
2022-07-26T07:35:51.559Z,2.67
2022-07-26T07:38:20.129Z,2.35
2022-07-26T07:40:50.782Z,2.70
2022-07-26T07:43:19.102Z,2.60
2022-07-26T07:45:48.904Z,2.55
2022-07-26T07:48:17.311Z,2.75
2022-07-26T07:50:45.708Z,2.47
2022-07-26T07:53:14.015Z,2.45
2022-07-26T07:55:46.361Z,1.75
2022-07-26T07:58:15.678Z,2.35
2022-07-26T08:00:47.965Z,2.00
2022-07-26T08:03:18.724Z,1.90
2022-07-26T08:05:49.734Z,2.05
2022-07-26T08:08:19.057Z,1.83
2022-07-26T08:10:52.327Z,1.52
2022-07-26T08:13:21.725Z,1.52
2022-07-26T08:15:50.521Z,1.40
2022-07-26T08:18:22.249Z,1.55
2022-07-26T08:20:51.332Z,2.00
2022-07-26T08:23:20.176Z,1.92
2022-07-26T08:25:55.995Z,1.58
2022-07-26T08:31:15.200Z,1.83
2022-07-26T08:33:46.529Z,1.60
2022-07-26T08:36:15.463Z,1.83
2022-07-26T08:38:43.810Z,1.52
2022-07-26T08:41:12.243Z,1.35
2022-07-26T08:43:51.397Z,1.77
2022-07-26T08:46:24.890Z,1.65
2022-07-26T08:48:56.502Z,1.35
2022-07-26T08:51:25.778Z,1.23
2022-07-26T08:54:01.906Z,1.50
2022-07-26T08:56:33.062Z,1.00
2022-07-26T08:59:01.388Z,1.20
2022-07-26T09:01:29.835Z,1.27
2022-07-26T09:04:30.318Z,1.10
2022-07-26T09:07:00.880Z,1.50
2022-07-26T09:09:29.459Z,1.20
2022-07-26T09:11:58.339Z,1.30
2022-07-26T09:14:37.692Z,1.40
2022-07-26T09:17:07.156Z,1.60
2022-07-26T09:19:36.807Z,1.90
2022-07-26T09:22:10.661Z,1.30
2022-07-26T09:24:41.161Z,1.92
2022-07-26T09:27:10.948Z,1.25
2022-07-26T09:29:49.041Z,1.23
2022-07-26T09:32:18.492Z,1.70
2022-07-26T09:34:53.014Z,1.30
2022-07-26T09:37:34.097Z,1.38
2022-07-26T09:40:02.988Z,1.67
2022-07-26T09:42:31.381Z,1.42
2022-07-26T09:45:00.026Z,1.50
2022-07-26T09:47:38.106Z,1.30
2022-07-26T09:50:17.830Z,1.30
2022-07-26T09:53:03.159Z,1.10
2022-07-26T09:55:40.682Z,1.65
2022-07-26T09:58:14.169Z,0.88
2022-07-26T10:00:43.337Z,1.05
2022-07-26T10:03:11.886Z,0.98
2022-07-26T10:05:41.735Z,0.80
2022-07-26T10:08:10.656Z,1.40
2022-07-26T10:10:41.782Z,1.30
2022-07-26T10:13:16.206Z,1.10
2022-07-26T10:15:46.967Z,0.82
2022-07-26T10:18:30.356Z,1.00
2022-07-26T10:21:00.061Z,0.98
2022-07-26T10:23:42.092Z,1.25
2022-07-26T10:26:11.730Z,1.10
2022-07-26T10:28:40.821Z,1.17
2022-07-26T10:31:42.206Z,1.20
2022-07-26T10:34:10.884Z,1.33
2022-07-26T10:36:41.498Z,0.90
2022-07-26T10:39:11.331Z,0.90
2022-07-26T10:41:41.127Z,0.93
2022-07-26T10:44:22.965Z,0.75
2022-07-26T10:47:19.107Z,0.77
2022-07-26T10:49:57.956Z,0.73
2022-07-26T10:52:28.954Z,0.88
2022-07-26T10:55:18.169Z,0.80
2022-07-26T10:57:47.834Z,0.80
2022-07-26T11:00:20.426Z,0.70
2022-07-26T11:02:55.395Z,0.80
2022-07-26T11:05:28.745Z,0.80
2022-07-26T11:07:59.689Z,0.80
2022-07-26T11:10:29.719Z,0.80
2022-07-26T11:13:02.355Z,0.55
2022-07-26T11:15:30.755Z,0.70
2022-07-26T11:18:09.023Z,0.60
2022-07-26T11:20:37.308Z,0.63
2022-07-26T11:23:20.856Z,0.93
2022-07-26T11:28:17.263Z,0.60
2022-07-26T11:30:57.580Z,0.80
2022-07-26T11:33:36.881Z,0.60
2022-07-26T11:36:05.648Z,0.80
2022-07-26T11:38:48.378Z,0.77
2022-07-26T11:41:16.897Z,0.70
2022-07-26T11:43:45.275Z,0.70
2022-07-26T11:46:13.630Z,0.90
2022-07-26T11:48:46.899Z,1.00
2022-07-26T11:51:15.907Z,0.80
2022-07-26T11:53:44.402Z,0.50
2022-07-26T11:56:19.102Z,0.80
2022-07-26T11:58:48.108Z,0.80
2022-07-26T12:01:17.844Z,0.70
2022-07-26T12:03:47.294Z,0.70
2022-07-26T12:06:17.608Z,0.90
2022-07-26T12:08:47.600Z,0.80
2022-07-26T12:11:22.019Z,0.80
2022-07-26T12:13:56.027Z,1.15
2022-07-26T12:16:44.147Z,0.95
2022-07-26T12:19:24.830Z,1.10
2022-07-26T12:21:54.307Z,0.88
2022-07-26T12:24:56.258Z,0.90
2022-07-26T12:27:26.916Z,0.75
2022-07-26T12:29:56.144Z,0.65
2022-07-26T12:32:25.233Z,1.00
2022-07-26T12:34:58.135Z,0.75
2022-07-26T12:37:39.414Z,0.93
2022-07-26T12:40:10.333Z,1.30
2022-07-26T12:42:42.471Z,1.00
2022-07-26T12:45:11.742Z,0.98
2022-07-26T12:47:40.787Z,0.98
2022-07-26T12:50:09.924Z,0.80
2022-07-26T12:52:38.723Z,0.80
2022-07-26T12:55:08.295Z,0.70
2022-07-26T12:57:37.043Z,0.70
2022-07-26T13:00:09.725Z,0.65
2022-07-26T13:02:41.020Z,0.73
2022-07-26T13:05:10.014Z,0.88
2022-07-26T13:07:38.420Z,0.77
2022-07-26T13:10:31.855Z,0.77
2022-07-26T13:12:55.739Z,0.82
2022-07-26T13:15:35.214Z,0.93
2022-07-26T13:18:07.155Z,0.65
2022-07-26T13:20:35.638Z,0.80
2022-07-26T13:23:04.152Z,0.77
2022-07-26T13:25:38.683Z,1.10
2022-07-26T13:28:08.721Z,0.68
2022-07-26T13:30:43.045Z,0.70
2022-07-26T13:33:12.006Z,0.95
2022-07-26T13:35:42.468Z,0.90
2022-07-26T13:38:11.185Z,0.80
2022-07-26T13:40:39.484Z,0.90
2022-07-26T13:43:08.887Z,1.17
2022-07-26T13:45:37.347Z,0.73
2022-07-26T13:48:07.374Z,0.90
2022-07-26T13:50:35.786Z,1.00
2022-07-26T13:53:04.229Z,1.00
2022-07-26T13:55:32.653Z,1.00
2022-07-26T13:58:00.983Z,1.05
2022-07-26T14:00:31.106Z,1.00
2022-07-26T14:03:00.264Z,1.20
2022-07-26T14:05:30.138Z,1.10
2022-07-26T14:07:58.480Z,1.08
2022-07-26T14:10:27.574Z,1.00
2022-07-26T14:12:55.886Z,1.20
2022-07-26T14:15:24.195Z,1.10
2022-07-26T14:17:52.909Z,1.15
2022-07-26T14:20:21.561Z,1.10
2022-07-26T14:22:53.905Z,1.08
2022-07-26T14:25:22.473Z,0.97
2022-07-26T14:27:51.205Z,1.00
2022-07-26T14:30:19.941Z,0.93
2022-07-26T14:32:48.335Z,1.23
2022-07-26T14:35:17.643Z,0.93
2022-07-26T14:37:46.379Z,0.93
2022-07-26T14:40:19.821Z,1.05
2022-07-26T14:42:48.206Z,1.00
2022-07-26T14:45:19.744Z,1.00
2022-07-26T14:47:48.236Z,1.00
2022-07-26T14:50:16.823Z,1.13
2022-07-26T14:52:46.781Z,1.35
2022-07-26T14:55:25.378Z,0.80
2022-07-26T14:57:56.177Z,0.93
2022-07-26T15:00:27.766Z,1.00
2022-07-26T15:02:58.619Z,0.85
2022-07-26T15:05:27.835Z,0.73
2022-07-26T15:07:56.458Z,0.80
2022-07-26T15:10:30.515Z,0.65
2022-07-26T15:12:59.150Z,0.77
2022-07-26T15:15:27.638Z,0.80
2022-07-26T15:17:55.983Z,0.82
2022-07-26T15:20:24.540Z,0.90
2022-07-26T15:22:53.873Z,1.05
2022-07-26T15:25:22.261Z,0.80
2022-07-26T15:27:52.157Z,1.05
2022-07-26T15:30:20.913Z,1.35
2022-07-26T15:32:52.837Z,0.70
2022-07-26T15:35:21.126Z,1.00
2022-07-26T15:37:49.459Z,0.80
2022-07-26T15:40:17.783Z,0.82
2022-07-26T15:42:47.347Z,0.70
2022-07-26T15:45:18.152Z,0.90
2022-07-26T15:47:57.627Z,0.77
2022-07-26T15:50:32.955Z,0.90
2022-07-26T15:53:01.304Z,0.93
2022-07-26T15:55:29.616Z,0.80
2022-07-26T15:57:57.922Z,0.63
2022-07-26T16:00:27.603Z,1.33
2022-07-26T16:02:56.037Z,0.90
2022-07-26T16:05:24.340Z,1.00
2022-07-26T16:07:58.505Z,0.82
2022-07-26T16:10:26.889Z,0.88
2022-07-26T16:12:55.255Z,0.90
2022-07-26T16:15:25.243Z,1.00
2022-07-26T16:17:54.928Z,1.02
2022-07-26T16:20:23.363Z,1.10
2022-07-26T16:22:51.720Z,1.00
2022-07-26T16:25:20.067Z,0.90
2022-07-26T16:27:48.424Z,1.30
2022-07-26T16:30:16.908Z,1.20
2022-07-26T16:32:45.225Z,0.95
2022-07-26T16:35:15.073Z,1.40
2022-07-26T16:37:43.393Z,1.10
2022-07-26T16:40:12.141Z,1.20
2022-07-26T16:42:40.425Z,1.23
2022-07-26T16:45:09.862Z,1.65
2022-07-26T16:47:41.750Z,1.60
2022-07-26T16:50:10.657Z,1.30
2022-07-26T16:52:41.583Z,1.40
2022-07-26T16:55:11.319Z,1.17
2022-07-26T16:57:39.854Z,1.20
2022-07-26T17:00:09.996Z,1.10
2022-07-26T17:02:38.443Z,1.20
2022-07-26T17:05:08.088Z,1.08
2022-07-26T17:07:37.252Z,1.08
2022-07-26T17:10:07.648Z,1.20
2022-07-26T17:12:36.110Z,0.90
2022-07-26T17:15:04.506Z,1.20
2022-07-26T17:17:32.881Z,1.20
2022-07-26T17:20:01.166Z,1.10
2022-07-26T17:22:29.502Z,1.02
2022-07-26T17:24:57.802Z,1.00
2022-07-26T17:27:27.443Z,1.23
2022-07-26T17:29:56.071Z,1.05
2022-07-26T17:32:24.467Z,1.23
2022-07-26T17:34:56.376Z,1.08
2022-07-26T17:37:26.892Z,1.20
2022-07-26T17:40:00.723Z,1.30
2022-07-26T17:42:32.524Z,1.13
2022-07-26T17:45:06.434Z,1.25
2022-07-26T17:47:42.154Z,1.38
2022-07-26T17:50:36.052Z,1.27
2022-07-26T17:53:05.622Z,1.30
2022-07-26T17:55:33.981Z,1.20
2022-07-26T17:58:03.667Z,1.30
2022-07-26T18:00:31.976Z,1.30
2022-07-26T18:03:00.250Z,1.20
2022-07-26T18:05:34.949Z,1.23
2022-07-26T18:08:04.395Z,1.40
2022-07-26T18:10:32.719Z,1.23
2022-07-26T18:13:01.020Z,1.30
2022-07-26T18:15:30.724Z,1.40
2022-07-26T18:17:59.070Z,1.48
2022-07-26T18:20:27.429Z,1.30
2022-07-26T18:22:56.089Z,1.30
2022-07-26T18:25:24.844Z,1.60
2022-07-26T18:27:53.858Z,1.48
2022-07-26T18:30:22.278Z,1.20
2022-07-26T18:32:52.029Z,1.20
2022-07-26T18:35:20.419Z,1.20
2022-07-26T18:37:49.116Z,1.38
2022-07-26T18:40:17.447Z,1.40
2022-07-26T18:42:45.926Z,1.60
2022-07-26T18:45:14.292Z,1.30
2022-07-26T18:47:42.872Z,1.45
2022-07-26T18:50:13.272Z,1.30
2022-07-26T18:52:45.788Z,1.48
2022-07-26T18:55:15.625Z,1.33
2022-07-26T18:57:44.706Z,1.60
2022-07-26T19:00:14.814Z,1.40
2022-07-26T19:02:43.254Z,1.50
2022-07-26T19:05:13.097Z,1.60
2022-07-26T19:07:41.814Z,1.58
2022-07-26T19:10:11.069Z,1.40
2022-07-26T19:12:39.392Z,1.42
2022-07-26T19:15:09.119Z,1.70
2022-07-26T19:17:37.721Z,1.48
2022-07-26T19:20:07.611Z,1.20
2022-07-26T19:22:39.704Z,1.63
2022-07-26T19:25:11.061Z,1.55
2022-07-26T19:27:41.570Z,1.60
2022-07-26T19:30:10.966Z,2.30
2022-07-26T19:32:42.357Z,2.17
2022-07-26T19:35:11.282Z,1.88
2022-07-26T19:37:43.824Z,1.73
2022-07-26T19:40:22.146Z,1.67
2022-07-26T19:42:50.456Z,1.60
2022-07-26T19:45:21.580Z,1.60
2022-07-26T19:47:52.777Z,1.58
2022-07-26T19:50:22.908Z,1.70
2022-07-26T19:52:55.288Z,1.45
2022-07-26T19:55:23.733Z,1.45
2022-07-26T19:57:54.542Z,1.40
2022-07-26T20:00:26.895Z,1.50
2022-07-26T20:02:58.310Z,1.50
2022-07-26T20:05:28.952Z,1.60
2022-07-26T20:08:00.728Z,1.63
2022-07-26T20:10:32.252Z,1.90
2022-07-26T20:13:00.868Z,1.98
2022-07-26T20:15:32.260Z,1.95
2022-07-26T20:18:04.114Z,3.15
2022-07-26T20:20:35.673Z,2.67
2022-07-26T20:23:07.330Z,3.47
2022-07-26T20:25:40.310Z,3.60
2022-07-26T20:28:10.203Z,3.33
2022-07-26T20:30:38.622Z,3.30
2022-07-26T20:33:07.021Z,3.67
2022-07-26T20:35:38.916Z,3.47
2022-07-26T20:38:09.007Z,3.67
2022-07-26T20:40:38.224Z,3.72
2022-07-26T20:43:07.576Z,3.22
2022-07-26T20:45:38.815Z,3.55
2022-07-26T20:48:10.089Z,3.90
2022-07-26T20:50:38.488Z,3.63
2022-07-26T20:53:06.943Z,3.70
2022-07-26T20:55:38.548Z,3.50
2022-07-26T20:58:06.895Z,3.92
2022-07-26T21:00:35.356Z,4.28
2022-07-26T21:03:03.652Z,4.22
2022-07-26T21:05:32.881Z,3.65
2022-07-26T21:08:03.877Z,4.10
2022-07-26T21:10:32.206Z,3.92
2022-07-26T21:13:01.866Z,3.97
2022-07-26T21:15:32.566Z,3.78
2022-07-26T21:18:01.158Z,4.00
2022-07-26T21:20:29.474Z,3.83
2022-07-26T21:23:12.752Z,3.50
2022-07-26T21:25:44.870Z,3.88
2022-07-26T21:28:14.532Z,3.83
2022-07-26T21:30:42.874Z,4.20
2022-07-26T21:33:11.152Z,3.97
2022-07-26T21:35:42.242Z,3.90
2022-07-26T21:38:10.801Z,4.22
2022-07-26T21:40:39.115Z,3.85
2022-07-26T21:43:07.429Z,3.85
2022-07-26T21:45:37.149Z,4.00
2022-07-26T21:48:05.725Z,3.90
2022-07-26T21:50:34.018Z,4.00
2022-07-26T21:53:02.371Z,3.58
2022-07-26T21:55:30.690Z,3.78
2022-07-26T21:57:59.034Z,3.58
2022-07-26T22:00:27.466Z,3.45
2022-07-26T22:02:57.201Z,4.20
2022-07-26T22:05:42.542Z,4.00
2022-07-26T22:08:11.693Z,3.70
2022-07-26T22:10:44.369Z,3.90
2022-07-26T22:13:13.488Z,3.72
2022-07-26T22:15:41.950Z,3.55
2022-07-26T22:18:11.713Z,4.10
2022-07-26T22:20:40.227Z,3.90
2022-07-26T22:23:09.730Z,3.85
2022-07-26T22:25:38.519Z,3.70
2022-07-26T22:28:07.468Z,4.07
2022-07-26T22:30:36.086Z,3.58
2022-07-26T22:33:07.803Z,3.90
2022-07-26T22:35:37.870Z,3.80
2022-07-26T22:38:07.077Z,4.22
2022-07-26T22:40:35.752Z,3.72
2022-07-26T22:43:04.494Z,3.88
2022-07-26T22:45:33.801Z,3.60
2022-07-26T22:48:03.371Z,3.55
2022-07-26T22:50:31.755Z,3.88
2022-07-26T22:53:01.920Z,3.83
2022-07-26T22:55:30.481Z,3.88
2022-07-26T22:57:58.782Z,4.03
2022-07-26T23:00:27.230Z,3.40
2022-07-26T23:02:55.598Z,3.75
2022-07-26T23:05:45.218Z,3.47
2022-07-26T23:08:44.397Z,4.07
2022-07-26T23:11:02.069Z,3.67
2022-07-26T23:13:30.403Z,4.40
2022-07-26T23:16:01.295Z,4.20
2022-07-26T23:18:30.162Z,4.32
2022-07-26T23:20:58.553Z,3.92
2022-07-26T23:23:29.567Z,3.70
2022-07-26T23:25:58.656Z,4.20
2022-07-26T23:28:37.626Z,3.70
2022-07-26T23:31:07.554Z,3.92
2022-07-26T23:33:53.119Z,3.70
2022-07-26T23:36:23.219Z,3.78
2022-07-26T23:38:52.999Z,3.75
2022-07-26T23:41:21.462Z,3.92
2022-07-26T23:43:49.814Z,4.13
2022-07-26T23:46:18.271Z,3.60
2022-07-26T23:48:46.784Z,3.70
2022-07-26T23:51:15.266Z,3.60
2022-07-26T23:53:43.619Z,3.97
2022-07-26T23:56:13.321Z,3.92
2022-07-26T23:58:41.682Z,3.70
